EW8926 Pozzolo Formigaro IT current weather conditions

sailwx.info

Wind from 282 at 1 knots gusting 5

Air temperature 7.2° C
Dewpoint 4.9° C

Last reported at 2019-Dec-07 12:16 UTC.
Time now 2019-Dec-07 13:40 UTC

Location: N 44°48' E 008°47'.
View on Google Maps.

See reports from other nearby stations

  
Tides and Currents Weather Stations Pressure Air Temp Water Temp Dewpoint Dewpoint Depression Visibility Wind Speed Wind Dir Waves Ship Positions
date/time (UTC)wind fromknots sea level pressurealtimeterstation pressurevisibilityair tempwater tempwave heightnotes
2019-Dec-07 12:16 282 1 gusting 5 7.2
2019-Dec-07 08:56 165 0 gusting 4 2.8
2019-Dec-07 08:06 154 1.1
2019-Dec-06 23:10 313 4.4
2019-Dec-06 22:05 313 5.0
2019-Dec-06 21:36 312 5.0
2019-Dec-06 21:16 312 5.0
2019-Dec-06 20:46 312 5.0
2019-Dec-06 20:16 312 5.0
2019-Dec-06 20:06 312 5.0
2019-Dec-06 19:56 312 5.0
2019-Dec-06 19:46 312 5.0
2019-Dec-06 19:36 312 5.0
2019-Dec-06 19:16 312 5.0
2019-Dec-06 19:06 312 5.0
2019-Dec-06 18:56 312 5.0
2019-Dec-06 18:46 312 5.0
2019-Dec-06 18:36 312 5.0
2019-Dec-06 18:26 312 5.0
2019-Dec-06 18:16 312 5.0
2019-Dec-06 18:06 312 5.0
2019-Dec-06 17:56 312 5.0
2019-Dec-06 17:46 312 5.0
2019-Dec-06 17:36 312 5.0
2019-Dec-06 17:26 312 5.0
2019-Dec-06 17:16 312 5.0
2019-Dec-06 17:06 312 5.0
2019-Dec-06 16:56 312 5.0
2019-Dec-06 16:46 312 5.0
2019-Dec-06 16:36 312 5.0
2019-Dec-06 16:26 312 5.0
2019-Dec-06 16:16 312 5.0
2019-Dec-06 16:06 312 5.0
2019-Dec-06 15:56 312 5.0
2019-Dec-06 15:46 312 5.0
2019-Dec-06 15:41 312 5.0
2019-Dec-06 15:36 312 5.0
2019-Dec-06 15:26 310 5.0
2019-Dec-06 15:16 311 5.0
2019-Dec-06 15:06 310 5.0
2019-Dec-06 14:56 310 5.0
2019-Dec-06 14:46 310 5.0
2019-Dec-06 14:36 311 5.0
2019-Dec-06 14:26 311 5.0
2019-Dec-06 14:16 311 5.0
2019-Dec-06 14:06 310 0 gusting 1 5.6
2019-Dec-06 13:56 310 5.0
2019-Dec-06 13:46 308 5.0
2019-Dec-06 13:36 309 0 gusting 1 5.0
2019-Dec-06 13:16 307 5.0
2019-Dec-06 13:06 306 0 gusting 2 5.0
2019-Dec-06 12:46 306 1 gusting 4 4.4
2019-Dec-06 12:36 313 0 gusting 4 4.4
2019-Dec-06 12:26 311 0 gusting 2 4.4
2019-Dec-06 12:21 323 1 gusting 2 4.4
2019-Dec-06 12:16 251 0 gusting 4 4.4
2019-Dec-06 12:06 268 4.4
2019-Dec-06 11:56 268 0 gusting 1 4.4
2019-Dec-06 11:51 305 0 gusting 1 4.4
2019-Dec-06 11:46 305 4.4
2019-Dec-06 11:36 329 3.9
2019-Dec-06 11:26 329 3.9
2019-Dec-06 11:16 311 3.3
2019-Dec-06 10:56 295 1 gusting 4 3.9
2019-Dec-06 10:46 346 0 gusting 2 3.9
2019-Dec-06 10:36 292 0 gusting 2 3.3
2019-Dec-06 10:26 307 2.8
2019-Dec-06 10:16 307 2.8
2019-Dec-06 10:06 306 2.8
2019-Dec-06 09:46 306 0 gusting 1 2.2
2019-Dec-06 09:36 317 1 gusting 4 2.2
2019-Dec-06 09:25 297 0 gusting 4 2.2
2019-Dec-06 09:21 288 2.2
2019-Dec-06 09:16 308 2.2
2019-Dec-06 09:06 305 2.2
2019-Dec-06 08:56 305 1.7
2019-Dec-06 08:46 306 0 gusting 0 1.7
2019-Dec-06 08:41 305 0 1.7
2019-Dec-06 08:36 305 1.7
2019-Dec-06 08:26 305 1.1
2019-Dec-06 08:16 305 1.1
2019-Dec-06 08:06 305 0.6
2019-Dec-06 07:56 305 0.6
2019-Dec-06 07:46 305 0.6
2019-Dec-06 07:36 305 0.6
2019-Dec-06 07:26 305 0.6
2019-Dec-06 07:16 305 0 gusting 1 -0.0
2019-Dec-06 07:06 305 -0.0
2019-Dec-06 06:56 305 -0.0
2019-Dec-06 06:46 305 -0.0
2019-Dec-06 06:36 305 -0.6
2019-Dec-06 06:16 305 0 gusting 2 -0.6
2019-Dec-06 06:06 225 0 gusting 1 -0.6
2019-Dec-06 05:51 225 -0.6
2019-Dec-06 05:46 225 -0.0
2019-Dec-06 05:40 221 -0.6
2019-Dec-06 05:36 162 -0.6
2019-Dec-06 05:26 162 -0.0
2019-Dec-06 05:16 162 -0.0
2019-Dec-06 05:06 162 -0.0
2019-Dec-06 04:56 162 -0.0
2019-Dec-06 04:51 162 -0.0
2019-Dec-06 04:46 162 -0.0
2019-Dec-06 04:36 162 -0.0
2019-Dec-06 04:26 162 -0.0
2019-Dec-06 04:16 162 -0.0
2019-Dec-06 03:56 162 -0.0
2019-Dec-06 03:46 162 -0.0
2019-Dec-06 03:36 162 -0.0
2019-Dec-06 03:26 162 -0.0
2019-Dec-06 03:16 162 -0.0
2019-Dec-06 03:06 162 -0.0
2019-Dec-06 02:56 162 -0.0
2019-Dec-06 02:46 162 -0.0
2019-Dec-06 02:36 162 -0.0
2019-Dec-06 02:26 162 -0.0
2019-Dec-06 02:16 162 -0.0
2019-Dec-06 02:11 162 -0.0
2019-Dec-06 02:06 162 -0.0
2019-Dec-06 01:56 162 -0.0
2019-Dec-06 01:46 162 0.6
2019-Dec-06 01:36 162 0 gusting 1 0.6
2019-Dec-06 01:26 162 0 gusting 1 0.6
2019-Dec-06 01:16 151 0 gusting 1 0.6
2019-Dec-06 01:06 172 0 gusting 2 0.6
2019-Dec-06 00:56 173 0 gusting 1 0.6
2019-Dec-06 00:46 173 0 gusting 2 0.6
2019-Dec-06 00:36 173 1 gusting 2 0.6
2019-Dec-06 00:26 172 0 gusting 2 0.6
2019-Dec-06 00:16 160 0 gusting 1 0.6
2019-Dec-06 00:06 160 0 gusting 1 0.6
2019-Dec-05 23:56 163 1 gusting 2 0.6
2019-Dec-05 23:46 166 0 gusting 2 0.6
2019-Dec-05 23:36 171 0.6
2019-Dec-05 23:25 165 0.6
2019-Dec-05 23:16 165 0 gusting 1 0.6
2019-Dec-05 23:10 165 0 gusting 1 0.6
2019-Dec-05 23:06 165 0 gusting 1 0.6
2019-Dec-05 22:56 165 0 gusting 2 0.6
2019-Dec-05 22:46 161 0 gusting 1 0.6
2019-Dec-05 22:36 171 0.6
2019-Dec-05 22:26 161 0 gusting 1 0.6
2019-Dec-05 22:16 161 1 gusting 2 0.6
2019-Dec-05 22:06 165 1 gusting 2 0.6
2019-Dec-05 21:56 176 0 gusting 1 0.6
2019-Dec-05 21:46 170 0 gusting 1 -0.0
2019-Dec-05 21:36 170 0 gusting 2 0.6
2019-Dec-05 21:26 162 1 gusting 4 0.6
2019-Dec-05 21:16 147 0 gusting 4 -0.0
2019-Dec-05 21:06 168 0 gusting 2 -0.0
2019-Dec-05 20:56 151 0 gusting 2 -0.0
2019-Dec-05 20:46 167 0 gusting 1 -0.0
2019-Dec-05 20:36 159 0 gusting 1 0.6
2019-Dec-05 20:26 171 -0.0
2019-Dec-05 20:16 171 0 gusting 1 0.6
2019-Dec-05 20:06 171 0 gusting 1 0.6
2019-Dec-05 19:56 171 0 gusting 1 0.6
2019-Dec-05 19:46 175 0 gusting 2 0.6
2019-Dec-05 19:36 182 0 gusting 2 0.6
2019-Dec-05 19:25 159 1 gusting 4 0.6
2019-Dec-05 19:16 154 0 gusting 4 0.6
2019-Dec-05 19:06 162 0 gusting 2 0.6
2019-Dec-05 18:56 166 0.6
2019-Dec-05 18:46 169 0 gusting 1 0.6
2019-Dec-05 18:36 169 0 gusting 2 1.1
2019-Dec-05 18:26 156 1.1
2019-Dec-05 18:16 156 1.1
2019-Dec-05 18:06 156 1.1
2019-Dec-05 17:56 156 1.7
2019-Dec-05 17:46 156 0 gusting 1 1.7
2019-Dec-05 17:36 156 1.7
2019-Dec-05 17:26 184 1.7
2019-Dec-05 17:16 184 1.7
2019-Dec-05 17:06 315 1.7
2019-Dec-05 16:46 315 2.2
2019-Dec-05 16:36 315 2.2
2019-Dec-05 16:26 315 2.8
2019-Dec-05 16:06 315 2.8
2019-Dec-05 15:56 315 3.3
2019-Dec-05 15:46 315 3.3
2019-Dec-05 15:36 315 3.9
2019-Dec-05 15:16 315 3.9
2019-Dec-05 15:06 315 3.9
2019-Dec-05 14:56 329 3.9
2019-Dec-05 14:46 329 3.9
2019-Dec-05 14:36 329 4.4
2019-Dec-05 14:26 329 4.4
2019-Dec-05 14:16 329 4.4
2019-Dec-05 14:06 329 4.4
2019-Dec-05 13:36 329 0 gusting 1 4.4
2019-Dec-05 13:26 328 0 gusting 2 4.4
2019-Dec-05 13:16 330 4.4
2019-Dec-05 13:06 067 4.4